sensor_id;sensor_type;location;lat;lon;timestamp;pressure;altitude;pressure_sealevel;temperature;humidity
24666;BME280;29726;53.532;-1.478;2022-09-09T00:02:20;99112.53;;;21.31;nan
24666;BME280;29726;53.532;-1.478;2022-09-09T00:04:58;99100.31;;;21.21;nan
24666;BME280;29726;53.532;-1.478;2022-09-09T00:07:43;99115.81;;;21.27;nan
24666;BME280;29726;53.532;-1.478;2022-09-09T00:15:30;99102.94;;;21.26;nan
24666;BME280;29726;53.532;-1.478;2022-09-09T00:23:37;99130.00;;;21.27;nan
24666;BME280;29726;53.532;-1.478;2022-09-09T00:29:12;99132.06;;;21.27;nan
24666;BME280;29726;53.532;-1.478;2022-09-09T00:31:43;99116.19;;;21.24;nan
24666;BME280;29726;53.532;-1.478;2022-09-09T00:34:09;99131.31;;;21.26;nan
24666;BME280;29726;53.532;-1.478;2022-09-09T00:36:38;99111.28;;;21.24;nan
24666;BME280;29726;53.532;-1.478;2022-09-09T00:42:30;99118.47;;;21.25;nan
24666;BME280;29726;53.532;-1.478;2022-09-09T00:44:36;99121.69;;;21.22;nan
24666;BME280;29726;53.532;-1.478;2022-09-09T00:55:47;99110.50;;;21.24;nan
24666;BME280;29726;53.532;-1.478;2022-09-09T00:58:14;99096.53;;;21.18;nan
24666;BME280;29726;53.532;-1.478;2022-09-09T01:01:09;99106.72;;;21.21;nan
24666;BME280;29726;53.532;-1.478;2022-09-09T01:03:56;99111.06;;;21.22;nan
24666;BME280;29726;53.532;-1.478;2022-09-09T01:06:33;99120.91;;;21.21;nan
24666;BME280;29726;53.532;-1.478;2022-09-09T01:16:37;99103.53;;;21.17;nan
24666;BME280;29726;53.532;-1.478;2022-09-09T01:19:07;99123.41;;;21.17;nan
24666;BME280;29726;53.532;-1.478;2022-09-09T01:22:06;99107.13;;;21.18;nan
24666;BME280;29726;53.532;-1.478;2022-09-09T01:27:12;99096.94;;;21.15;nan
24666;BME280;29726;53.532;-1.478;2022-09-09T01:29:39;99098.44;;;21.16;nan
24666;BME280;29726;53.532;-1.478;2022-09-09T01:32:39;99110.53;;;21.16;nan
24666;BME280;29726;53.532;-1.478;2022-09-09T01:38:12;99119.63;;;21.15;nan
24666;BME280;29726;53.532;-1.478;2022-09-09T01:43:04;99138.19;;;21.16;nan
24666;BME280;29726;53.532;-1.478;2022-09-09T01:47:55;99124.53;;;21.14;nan
24666;BME280;29726;53.532;-1.478;2022-09-09T01:50:22;99097.34;;;21.04;nan
24666;BME280;29726;53.532;-1.478;2022-09-09T01:52:50;99113.19;;;21.14;nan
24666;BME280;29726;53.532;-1.478;2022-09-09T01:55:25;99111.31;;;21.09;nan
24666;BME280;29726;53.532;-1.478;2022-09-09T01:58:15;99120.19;;;21.13;nan
24666;BME280;29726;53.532;-1.478;2022-09-09T02:08:43;99114.34;;;21.11;nan
24666;BME280;29726;53.532;-1.478;2022-09-09T02:11:18;99105.66;;;21.09;nan
24666;BME280;29726;53.532;-1.478;2022-09-09T02:13:46;99130.25;;;21.07;nan
24666;BME280;29726;53.532;-1.478;2022-09-09T02:18:51;99092.78;;;21.08;nan
24666;BME280;29726;53.532;-1.478;2022-09-09T02:21:20;99101.13;;;21.06;nan
24666;BME280;29726;53.532;-1.478;2022-09-09T02:23:49;99105.66;;;21.09;nan
24666;BME280;29726;53.532;-1.478;2022-09-09T02:26:19;99098.47;;;21.08;nan
24666;BME280;29726;53.532;-1.478;2022-09-09T02:28:51;99105.66;;;21.09;nan
24666;BME280;29726;53.532;-1.478;2022-09-09T02:31:20;99107.53;;;21.07;nan
24666;BME280;29726;53.532;-1.478;2022-09-09T02:33:53;99107.53;;;21.07;nan
24666;BME280;29726;53.532;-1.478;2022-09-09T02:36:24;99106.81;;;21.06;nan
24666;BME280;29726;53.532;-1.478;2022-09-09T02:38:51;99104.53;;;21.05;nan
24666;BME280;29726;53.532;-1.478;2022-09-09T02:41:48;99120.41;;;21.08;nan
24666;BME280;29726;53.532;-1.478;2022-09-09T02:49:26;99114.00;;;21.07;nan
24666;BME280;29726;53.532;-1.478;2022-09-09T02:52:08;99128.75;;;21.06;nan
24666;BME280;29726;53.532;-1.478;2022-09-09T02:57:42;99122.31;;;21.05;nan
24666;BME280;29726;53.532;-1.478;2022-09-09T03:00:11;99117.78;;;21.02;nan
24666;BME280;29726;53.532;-1.478;2022-09-09T03:02:36;99121.56;;;21.05;nan
24666;BME280;29726;53.532;-1.478;2022-09-09T03:05:02;99116.28;;;21.01;nan
24666;BME280;29726;53.532;-1.478;2022-09-09T03:07:28;99111.34;;;21.02;nan
24666;BME280;29726;53.532;-1.478;2022-09-09T03:09:53;99120.03;;;21.04;nan
24666;BME280;29726;53.532;-1.478;2022-09-09T03:12:20;99094.94;;;20.93;nan
24666;BME280;29726;53.532;-1.478;2022-09-09T03:19:37;99095.88;;;20.88;nan
24666;BME280;29726;53.532;-1.478;2022-09-09T03:22:03;99103.44;;;21.00;nan
24666;BME280;29726;53.532;-1.478;2022-09-09T03:24:29;99096.22;;;20.99;nan
24666;BME280;29726;53.532;-1.478;2022-09-09T03:29:21;99106.25;;;21.00;nan
24666;BME280;29726;53.532;-1.478;2022-09-09T03:31:46;99132.94;;;20.97;nan
24666;BME280;29726;53.532;-1.478;2022-09-09T03:34:12;99128.97;;;21.00;nan
24666;BME280;29726;53.532;-1.478;2022-09-09T03:36:39;99137.84;;;20.97;nan
24666;BME280;29726;53.532;-1.478;2022-09-09T03:39:05;99107.97;;;20.96;nan
24666;BME280;29726;53.532;-1.478;2022-09-09T03:41:31;99102.31;;;20.96;nan
24666;BME280;29726;53.532;-1.478;2022-09-09T03:43:56;99094.38;;;20.87;nan
24666;BME280;29726;53.532;-1.478;2022-09-09T03:46:24;99109.88;;;20.93;nan
24666;BME280;29726;53.532;-1.478;2022-09-09T03:48:50;99098.53;;;20.86;nan
24666;BME280;29726;53.532;-1.478;2022-09-09T03:51:16;99109.88;;;20.93;nan
24666;BME280;29726;53.532;-1.478;2022-09-09T03:53:42;99107.03;;;20.93;nan
24666;BME280;29726;53.532;-1.478;2022-09-09T03:58:35;99120.84;;;20.97;nan
24666;BME280;29726;53.532;-1.478;2022-09-09T04:01:06;99102.69;;;20.92;nan
24666;BME280;29726;53.532;-1.478;2022-09-09T04:03:33;99109.13;;;20.93;nan
24666;BME280;29726;53.532;-1.478;2022-09-09T04:06:00;99110.63;;;20.94;nan
24666;BME280;29726;53.532;-1.478;2022-09-09T04:08:25;99108.34;;;20.92;nan
24666;BME280;29726;53.532;-1.478;2022-09-09T04:10:51;99133.34;;;20.94;nan
24666;BME280;29726;53.532;-1.478;2022-09-09T04:13:18;99127.66;;;20.94;nan
24666;BME280;29726;53.532;-1.478;2022-09-09T04:15:51;99126.88;;;20.93;nan
24666;BME280;29726;53.532;-1.478;2022-09-09T04:20:42;99118.56;;;20.88;nan
24666;BME280;29726;53.532;-1.478;2022-09-09T04:23:08;99111.78;;;20.91;nan
24666;BME280;29726;53.532;-1.478;2022-09-09T04:25:34;99116.69;;;20.90;nan
24666;BME280;29726;53.532;-1.478;2022-09-09T04:27:59;99097.03;;;20.77;nan
24666;BME280;29726;53.532;-1.478;2022-09-09T04:32:50;99114.44;;;20.89;nan
24666;BME280;29726;53.532;-1.478;2022-09-09T04:37:41;99116.31;;;20.86;nan
24666;BME280;29726;53.532;-1.478;2022-09-09T04:42:38;99131.06;;;20.85;nan
24666;BME280;29726;53.532;-1.478;2022-09-09T04:45:05;99156.03;;;20.86;nan
24666;BME280;29726;53.532;-1.478;2022-09-09T04:47:32;99132.03;;;20.87;nan
24666;BME280;29726;53.532;-1.478;2022-09-09T04:49:57;99134.09;;;20.87;nan
24666;BME280;29726;53.532;-1.478;2022-09-09T04:52:23;99136.19;;;20.86;nan
24666;BME280;29726;53.532;-1.478;2022-09-09T04:54:48;99132.03;;;20.87;nan
24666;BME280;29726;53.532;-1.478;2022-09-09T04:57:14;99136.00;;;20.84;nan
24666;BME280;29726;53.532;-1.478;2022-09-09T04:59:39;99128.06;;;20.83;nan
24666;BME280;29726;53.532;-1.478;2022-09-09T05:02:05;99154.88;;;20.82;nan
24666;BME280;29726;53.532;-1.478;2022-09-09T05:04:31;99136.00;;;20.84;nan
24666;BME280;29726;53.532;-1.478;2022-09-09T05:06:56;99134.28;;;20.81;nan
24666;BME280;29726;53.532;-1.478;2022-09-09T05:11:47;99150.75;;;20.83;nan
24666;BME280;29726;53.532;-1.478;2022-09-09T05:14:14;99156.78;;;20.79;nan
24666;BME280;29726;53.532;-1.478;2022-09-09T05:19:05;99158.50;;;20.82;nan
24666;BME280;29726;53.532;-1.478;2022-09-09T05:21:30;99157.53;;;20.80;nan
24666;BME280;29726;53.532;-1.478;2022-09-09T05:23:56;99157.72;;;20.82;nan
24666;BME280;29726;53.532;-1.478;2022-09-09T05:26:22;99161.31;;;20.82;nan
24666;BME280;29726;53.532;-1.478;2022-09-09T05:28:49;99148.84;;;20.78;nan
24666;BME280;29726;53.532;-1.478;2022-09-09T05:31:16;99156.78;;;20.79;nan
24666;BME280;29726;53.532;-1.478;2022-09-09T05:38:36;99167.38;;;20.79;nan
24666;BME280;29726;53.532;-1.478;2022-09-09T05:41:03;99166.63;;;20.78;nan
24666;BME280;29726;53.532;-1.478;2022-09-09T05:43:29;99165.88;;;20.78;nan
24666;BME280;29726;53.532;-1.478;2022-09-09T05:46:08;99167.38;;;20.79;nan
24666;BME280;29726;53.532;-1.478;2022-09-09T05:48:36;99182.88;;;20.78;nan
24666;BME280;29726;53.532;-1.478;2022-09-09T05:51:03;99167.19;;;20.77;nan
24666;BME280;29726;53.532;-1.478;2022-09-09T05:53:30;99175.69;;;20.77;nan
24666;BME280;29726;53.532;-1.478;2022-09-09T05:56:07;99170.03;;;20.77;nan
24666;BME280;29726;53.532;-1.478;2022-09-09T05:58:35;99179.88;;;20.76;nan
24666;BME280;29726;53.532;-1.478;2022-09-09T06:03:37;99171.91;;;20.74;nan
24666;BME280;29726;53.532;-1.478;2022-09-09T06:06:05;99163.22;;;20.72;nan
24666;BME280;29726;53.532;-1.478;2022-09-09T06:08:32;99157.53;;;20.72;nan
24666;BME280;29726;53.532;-1.478;2022-09-09T06:11:25;99170.41;;;20.73;nan
24666;BME280;29726;53.532;-1.478;2022-09-09T06:13:51;99170.41;;;20.73;nan
24666;BME280;29726;53.532;-1.478;2022-09-09T06:16:21;99166.81;;;20.73;nan
24666;BME280;29726;53.532;-1.478;2022-09-09T06:18:48;99159.84;;;20.66;nan
24666;BME280;29726;53.532;-1.478;2022-09-09T06:23:47;99173.81;;;20.72;nan
24666;BME280;29726;53.532;-1.478;2022-09-09T06:26:24;99164.00;;;20.65;nan
24666;BME280;29726;53.532;-1.478;2022-09-09T06:28:52;99173.06;;;20.71;nan
24666;BME280;29726;53.532;-1.478;2022-09-09T06:31:20;99190.06;;;20.71;nan
24666;BME280;29726;53.532;-1.478;2022-09-09T06:33:48;99190.06;;;20.71;nan
24666;BME280;29726;53.532;-1.478;2022-09-09T06:36:20;99149.25;;;20.44;nan
24666;BME280;29726;53.532;-1.478;2022-09-09T06:38:46;99191.22;;;20.68;nan
24666;BME280;29726;53.532;-1.478;2022-09-09T06:46:17;99207.88;;;20.72;nan
24666;BME280;29726;53.532;-1.478;2022-09-09T06:48:44;99196.16;;;20.68;nan
24666;BME280;29726;53.532;-1.478;2022-09-09T06:51:18;99210.13;;;20.73;nan
24666;BME280;29726;53.532;-1.478;2022-09-09T06:53:45;99206.34;;;20.71;nan
24666;BME280;29726;53.532;-1.478;2022-09-09T06:58:40;99202.94;;;20.72;nan
24666;BME280;29726;53.532;-1.478;2022-09-09T07:01:10;99198.78;;;20.73;nan
24666;BME280;29726;53.532;-1.478;2022-09-09T07:03:38;99210.88;;;20.74;nan
24666;BME280;29726;53.532;-1.478;2022-09-09T07:06:04;99207.47;;;20.75;nan
24666;BME280;29726;53.532;-1.478;2022-09-09T07:08:30;99218.81;;;20.75;nan
24666;BME280;29726;53.532;-1.478;2022-09-09T07:11:05;99215.41;;;20.77;nan
24666;BME280;29726;53.532;-1.478;2022-09-09T07:16:07;99197.25;;;20.72;nan
24666;BME280;29726;53.532;-1.478;2022-09-09T07:18:33;99204.06;;;20.77;nan
24666;BME280;29726;53.532;-1.478;2022-09-09T07:20:59;99206.34;;;20.78;nan
24666;BME280;29726;53.532;-1.478;2022-09-09T07:25:51;99207.47;;;20.75;nan
24666;BME280;29726;53.532;-1.478;2022-09-09T07:28:19;99221.47;;;20.81;nan
24666;BME280;29726;53.532;-1.478;2022-09-09T07:30:59;99229.41;;;20.82;nan
24666;BME280;29726;53.532;-1.478;2022-09-09T07:33:27;99224.88;;;20.79;nan
24666;BME280;29726;53.532;-1.478;2022-09-09T07:38:27;99226.38;;;20.80;nan
24666;BME280;29726;53.532;-1.478;2022-09-09T07:40:52;99229.03;;;20.86;nan
24666;BME280;29726;53.532;-1.478;2022-09-09T07:43:18;99211.63;;;20.74;nan
24666;BME280;29726;53.532;-1.478;2022-09-09T07:45:44;99233.97;;;20.85;nan
24666;BME280;29726;53.532;-1.478;2022-09-09T07:48:09;99236.03;;;20.85;nan
24666;BME280;29726;53.532;-1.478;2022-09-09T07:55:25;99253.66;;;20.91;nan
24666;BME280;29726;53.532;-1.478;2022-09-09T07:57:53;99258.56;;;20.90;nan
24666;BME280;29726;53.532;-1.478;2022-09-09T08:00:18;99257.03;;;20.89;nan
24666;BME280;29726;53.532;-1.478;2022-09-09T08:02:45;99262.72;;;20.89;nan
24666;BME280;29726;53.532;-1.478;2022-09-09T08:05:11;99267.25;;;20.92;nan
24666;BME280;29726;53.532;-1.478;2022-09-09T08:07:38;99290.72;;;20.93;nan
24666;BME280;29726;53.532;-1.478;2022-09-09T08:10:04;99263.09;;;20.93;nan
24666;BME280;29726;53.532;-1.478;2022-09-09T08:12:29;99244.94;;;20.81;nan
24666;BME280;29726;53.532;-1.478;2022-09-09T08:14:55;99258.91;;;20.94;nan
24666;BME280;29726;53.532;-1.478;2022-09-09T08:17:20;99260.44;;;20.95;nan
24666;BME280;29726;53.532;-1.478;2022-09-09T08:19:45;99258.75;;;20.92;nan
24666;BME280;29726;53.532;-1.478;2022-09-09T08:22:11;99267.63;;;20.96;nan
24666;BME280;29726;53.532;-1.478;2022-09-09T08:24:36;99260.63;;;20.97;nan
24666;BME280;29726;53.532;-1.478;2022-09-09T08:27:02;99259.69;;;20.95;nan
24666;BME280;29726;53.532;-1.478;2022-09-09T08:29:27;99259.28;;;20.98;nan
24666;BME280;29726;53.532;-1.478;2022-09-09T08:31:56;99260.06;;;20.99;nan
24666;BME280;29726;53.532;-1.478;2022-09-09T08:36:48;99276.72;;;21.02;nan
24666;BME280;29726;53.532;-1.478;2022-09-09T08:39:16;99278.97;;;21.04;nan
24666;BME280;29726;53.532;-1.478;2022-09-09T08:45:03;99279.94;;;21.06;nan
24666;BME280;29726;53.532;-1.478;2022-09-09T08:47:54;99283.50;;;21.07;nan
24666;BME280;29726;53.532;-1.478;2022-09-09T08:50:28;99285.00;;;21.08;nan
24666;BME280;29726;53.532;-1.478;2022-09-09T08:53:17;99285.19;;;21.10;nan
24666;BME280;29726;53.532;-1.478;2022-09-09T08:55:50;99296.78;;;21.12;nan
24666;BME280;29726;53.532;-1.478;2022-09-09T08:58:19;99292.59;;;21.13;nan
24666;BME280;29726;53.532;-1.478;2022-09-09T09:03:34;99290.69;;;21.15;nan
24666;BME280;29726;53.532;-1.478;2022-09-09T09:08:47;99292.97;;;21.17;nan
24666;BME280;29726;53.532;-1.478;2022-09-09T09:18:53;99310.00;;;21.24;nan
24666;BME280;29726;53.532;-1.478;2022-09-09T09:24:10;99303.19;;;21.27;nan
24666;BME280;29726;53.532;-1.478;2022-09-09T09:26:42;99309.22;;;21.31;nan
24666;BME280;29726;53.532;-1.478;2022-09-09T09:31:43;99308.81;;;21.35;nan
24666;BME280;29726;53.532;-1.478;2022-09-09T09:34:09;99301.25;;;21.37;nan
24666;BME280;29726;53.532;-1.478;2022-09-09T09:36:43;99322.47;;;21.36;nan
24666;BME280;29726;53.532;-1.478;2022-09-09T09:39:25;99294.44;;;21.40;nan
24666;BME280;29726;53.532;-1.478;2022-09-09T09:41:51;99296.72;;;21.42;nan
24666;BME280;29726;53.532;-1.478;2022-09-09T09:44:30;99303.13;;;21.50;nan
24666;BME280;29726;53.532;-1.478;2022-09-09T09:47:12;99304.81;;;21.53;nan
24666;BME280;29726;53.532;-1.478;2022-09-09T09:49:39;99300.06;;;21.55;nan
24666;BME280;29726;53.532;-1.478;2022-09-09T09:52:06;99317.50;;;21.59;nan
24666;BME280;29726;53.532;-1.478;2022-09-09T09:54:41;99297.78;;;21.61;nan
24666;BME280;29726;53.532;-1.478;2022-09-09T09:57:14;99302.94;;;21.63;nan
24666;BME280;29726;53.532;-1.478;2022-09-09T09:59:40;99341.72;;;21.60;nan
24666;BME280;29726;53.532;-1.478;2022-09-09T10:04:40;99290.97;;;21.64;nan
24666;BME280;29726;53.532;-1.478;2022-09-09T10:09:41;99288.31;;;21.74;nan
24666;BME280;29726;53.532;-1.478;2022-09-09T10:14:57;99284.09;;;21.82;nan
24666;BME280;29726;53.532;-1.478;2022-09-09T10:26:47;99283.63;;;22.00;nan
24666;BME280;29726;53.532;-1.478;2022-09-09T10:29:38;99286.25;;;22.06;nan
24666;BME280;29726;53.532;-1.478;2022-09-09T10:32:36;99282.44;;;22.11;nan
24666;BME280;29726;53.532;-1.478;2022-09-09T10:35:46;99287.75;;;22.14;nan
24666;BME280;29726;53.532;-1.478;2022-09-09T10:38:25;99291.13;;;22.20;nan
24666;BME280;29726;53.532;-1.478;2022-09-09T10:52:00;99293.63;;;22.48;nan
24666;BME280;29726;53.532;-1.478;2022-09-09T10:57:25;99303.06;;;22.58;nan
24666;BME280;29726;53.532;-1.478;2022-09-09T10:59:57;99310.25;;;22.59;nan
24666;BME280;29726;53.532;-1.478;2022-09-09T11:02:29;99303.75;;;22.66;nan
24666;BME280;29726;53.532;-1.478;2022-09-09T11:09:58;99320.78;;;22.74;nan
24666;BME280;29726;53.532;-1.478;2022-09-09T11:15:29;99283.59;;;22.72;nan
24666;BME280;29726;53.532;-1.478;2022-09-09T11:17:59;99311.97;;;22.87;nan
24666;BME280;29726;53.532;-1.478;2022-09-09T11:20:26;99312.28;;;22.91;nan
24666;BME280;29726;53.532;-1.478;2022-09-09T11:23:09;99311.88;;;22.94;nan
24666;BME280;29726;53.532;-1.478;2022-09-09T11:25:43;99320.59;;;22.96;nan
24666;BME280;29726;53.532;-1.478;2022-09-09T11:28:54;99327.38;;;23.01;nan
24666;BME280;29726;53.532;-1.478;2022-09-09T11:31:27;99331.16;;;23.03;nan
24666;BME280;29726;53.532;-1.478;2022-09-09T11:34:00;99323.72;;;23.08;nan
24666;BME280;29726;53.532;-1.478;2022-09-09T11:44:41;99316.25;;;23.20;nan
24666;BME280;29726;53.532;-1.478;2022-09-09T11:47:36;99322.28;;;23.24;nan
24666;BME280;29726;53.532;-1.478;2022-09-09T11:52:42;99326.06;;;23.26;nan
24666;BME280;29726;53.532;-1.478;2022-09-09T11:55:33;99340.25;;;23.34;nan
24666;BME280;29726;53.532;-1.478;2022-09-09T11:58:21;99329.00;;;23.36;nan
24666;BME280;29726;53.532;-1.478;2022-09-09T12:00:49;99337.91;;;23.40;nan
24666;BME280;29726;53.532;-1.478;2022-09-09T12:06:31;99347.88;;;23.48;nan
24666;BME280;29726;53.532;-1.478;2022-09-09T12:14:43;99352.50;;;23.61;nan
24666;BME280;29726;53.532;-1.478;2022-09-09T12:17:22;99357.03;;;23.64;nan
24666;BME280;29726;53.532;-1.478;2022-09-09T12:20:03;99347.31;;;23.67;nan
24666;BME280;29726;53.532;-1.478;2022-09-09T12:28:09;99345.28;;;23.76;nan
24666;BME280;29726;53.532;-1.478;2022-09-09T12:31:10;99352.50;;;23.77;nan
24666;BME280;29726;53.532;-1.478;2022-09-09T12:38:40;99350.78;;;23.82;nan
24666;BME280;29726;53.532;-1.478;2022-09-09T12:41:22;99350.94;;;23.84;nan
24666;BME280;29726;53.532;-1.478;2022-09-09T12:43:49;99371.50;;;23.83;nan
24666;BME280;29726;53.532;-1.478;2022-09-09T12:46:43;99367.81;;;23.89;nan
24666;BME280;29726;53.532;-1.478;2022-09-09T12:51:51;99359.16;;;23.97;nan
24666;BME280;29726;53.532;-1.478;2022-09-09T12:54:17;99360.06;;;23.99;nan
24666;BME280;29726;53.532;-1.478;2022-09-09T12:56:46;99363.69;;;24.00;nan
24666;BME280;29726;53.532;-1.478;2022-09-09T12:59:35;99361.00;;;24.02;nan
24666;BME280;29726;53.532;-1.478;2022-09-09T13:02:01;99369.16;;;24.05;nan
24666;BME280;29726;53.532;-1.478;2022-09-09T13:04:26;99370.06;;;24.08;nan
24666;BME280;29726;53.532;-1.478;2022-09-09T13:06:52;99379.53;;;24.10;nan
24666;BME280;29726;53.532;-1.478;2022-09-09T13:09:18;99360.75;;;24.07;nan
24666;BME280;29726;53.532;-1.478;2022-09-09T13:11:49;99377.59;;;24.13;nan
24666;BME280;29726;53.532;-1.478;2022-09-09T13:14:18;99403.09;;;24.11;nan
24666;BME280;29726;53.532;-1.478;2022-09-09T13:16:55;99381.38;;;24.15;nan
24666;BME280;29726;53.532;-1.478;2022-09-09T13:19:21;99372.00;;;24.05;nan
24666;BME280;29726;53.532;-1.478;2022-09-09T13:21:47;99389.34;;;24.17;nan
24666;BME280;29726;53.532;-1.478;2022-09-09T13:24:27;99389.34;;;24.17;nan
24666;BME280;29726;53.532;-1.478;2022-09-09T13:27:23;99392.22;;;24.17;nan
24666;BME280;29726;53.532;-1.478;2022-09-09T13:29:53;99403.00;;;24.18;nan
24666;BME280;29726;53.532;-1.478;2022-09-09T13:32:20;99393.88;;;24.20;nan
24666;BME280;29726;53.532;-1.478;2022-09-09T13:34:57;99398.81;;;24.19;nan
24666;BME280;29726;53.532;-1.478;2022-09-09T13:37:43;99400.00;;;24.16;nan
24666;BME280;29726;53.532;-1.478;2022-09-09T13:40:20;99397.31;;;24.18;nan
24666;BME280;29726;53.532;-1.478;2022-09-09T13:42:47;99397.81;;;24.07;nan
24666;BME280;29726;53.532;-1.478;2022-09-09T13:45:22;99418.63;;;24.17;nan
24666;BME280;29726;53.532;-1.478;2022-09-09T13:47:48;99420.13;;;24.18;nan
24666;BME280;29726;53.532;-1.478;2022-09-09T14:02:29;99448.81;;;24.20;nan
24666;BME280;29726;53.532;-1.478;2022-09-09T14:04:56;99447.91;;;24.18;nan
24666;BME280;29726;53.532;-1.478;2022-09-09T14:07:21;99453.63;;;24.18;nan
24666;BME280;29726;53.532;-1.478;2022-09-09T14:09:47;99464.25;;;24.17;nan
24666;BME280;29726;53.532;-1.478;2022-09-09T14:12:15;99464.25;;;24.17;nan
24666;BME280;29726;53.532;-1.478;2022-09-09T14:14:42;99470.72;;;24.18;nan
24666;BME280;29726;53.532;-1.478;2022-09-09T14:17:08;99457.66;;;24.15;nan
24666;BME280;29726;53.532;-1.478;2022-09-09T14:19:34;99460.66;;;24.17;nan
24666;BME280;29726;53.532;-1.478;2022-09-09T14:22:00;99456.88;;;24.14;nan
24666;BME280;29726;53.532;-1.478;2022-09-09T14:24:26;99453.44;;;24.16;nan
24666;BME280;29726;53.532;-1.478;2022-09-09T14:26:53;99460.91;;;24.11;nan
24666;BME280;29726;53.532;-1.478;2022-09-09T14:29:18;99466.19;;;24.15;nan
24666;BME280;29726;53.532;-1.478;2022-09-09T14:31:44;99467.34;;;24.12;nan
24666;BME280;29726;53.532;-1.478;2022-09-09T14:34:09;99470.81;;;24.10;nan
24666;BME280;29726;53.532;-1.478;2022-09-09T14:36:36;99461.47;;;24.10;nan
24666;BME280;29726;53.532;-1.478;2022-09-09T14:39:02;99457.13;;;24.09;nan
24666;BME280;29726;53.532;-1.478;2022-09-09T14:41:29;99475.75;;;24.10;nan
24666;BME280;29726;53.532;-1.478;2022-09-09T14:43:55;99475.75;;;24.10;nan
24666;BME280;29726;53.532;-1.478;2022-09-09T14:46:21;99461.16;;;24.06;nan
24666;BME280;29726;53.532;-1.478;2022-09-09T14:48:46;99458.47;;;24.08;nan
24666;BME280;29726;53.532;-1.478;2022-09-09T14:51:24;99458.47;;;24.08;nan
24666;BME280;29726;53.532;-1.478;2022-09-09T14:53:53;99457.56;;;24.05;nan
24666;BME280;29726;53.532;-1.478;2022-09-09T14:56:21;99462.09;;;24.08;nan
24666;BME280;29726;53.532;-1.478;2022-09-09T14:58:48;99462.09;;;24.08;nan
24666;BME280;29726;53.532;-1.478;2022-09-09T15:01:16;99464.94;;;24.08;nan
24666;BME280;29726;53.532;-1.478;2022-09-09T15:03:47;99457.88;;;24.09;nan
24666;BME280;29726;53.532;-1.478;2022-09-09T15:06:14;99473.81;;;24.12;nan
24666;BME280;29726;53.532;-1.478;2022-09-09T15:08:42;99457.19;;;24.01;nan
24666;BME280;29726;53.532;-1.478;2022-09-09T15:11:09;99473.81;;;24.12;nan
24666;BME280;29726;53.532;-1.478;2022-09-09T15:13:36;99487.91;;;24.10;nan
24666;BME280;29726;53.532;-1.478;2022-09-09T15:16:18;99472.66;;;24.15;nan
24666;BME280;29726;53.532;-1.478;2022-09-09T15:18:44;99498.16;;;24.13;nan
24666;BME280;29726;53.532;-1.478;2022-09-09T15:21:14;99465.44;;;24.14;nan
24666;BME280;29726;53.532;-1.478;2022-09-09T15:23:40;99471.13;;;24.14;nan
24666;BME280;29726;53.532;-1.478;2022-09-09T15:28:34;99498.50;;;24.17;nan
24666;BME280;29726;53.532;-1.478;2022-09-09T15:31:18;99504.19;;;24.17;nan
24666;BME280;29726;53.532;-1.478;2022-09-09T15:33:55;99504.19;;;24.17;nan
24666;BME280;29726;53.532;-1.478;2022-09-09T15:36:31;99513.53;;;24.18;nan
24666;BME280;29726;53.532;-1.478;2022-09-09T15:38:58;99514.88;;;24.17;nan
24666;BME280;29726;53.532;-1.478;2022-09-09T15:43:50;99506.88;;;24.15;nan
24666;BME280;29726;53.532;-1.478;2022-09-09T15:48:45;99522.47;;;24.14;nan
24666;BME280;29726;53.532;-1.478;2022-09-09T15:51:11;99526.69;;;24.13;nan
24666;BME280;29726;53.532;-1.478;2022-09-09T15:53:37;99531.59;;;24.13;nan
24666;BME280;29726;53.532;-1.478;2022-09-09T15:56:05;99523.50;;;24.09;nan
24666;BME280;29726;53.532;-1.478;2022-09-09T15:58:32;99525.56;;;24.09;nan
24666;BME280;29726;53.532;-1.478;2022-09-09T16:01:07;99530.53;;;24.08;nan
24666;BME280;29726;53.532;-1.478;2022-09-09T16:06:08;99527.91;;;24.03;nan
24666;BME280;29726;53.532;-1.478;2022-09-09T16:08:39;99528.69;;;24.03;nan
24666;BME280;29726;53.532;-1.478;2022-09-09T16:11:16;99524.13;;;24.00;nan
24666;BME280;29726;53.532;-1.478;2022-09-09T16:13:43;99528.91;;;23.98;nan
24666;BME280;29726;53.532;-1.478;2022-09-09T16:16:13;99525.28;;;23.97;nan
24666;BME280;29726;53.532;-1.478;2022-09-09T16:18:46;99529.66;;;23.98;nan
24666;BME280;29726;53.532;-1.478;2022-09-09T16:21:18;99535.19;;;23.96;nan
24666;BME280;29726;53.532;-1.478;2022-09-09T16:23:44;99538.03;;;23.96;nan
24666;BME280;29726;53.532;-1.478;2022-09-09T16:26:15;99525.34;;;23.90;nan
24666;BME280;29726;53.532;-1.478;2022-09-09T16:28:41;99533.50;;;23.93;nan
24666;BME280;29726;53.532;-1.478;2022-09-09T16:31:13;99515.19;;;23.79;nan
24666;BME280;29726;53.532;-1.478;2022-09-09T16:33:39;99536.97;;;23.92;nan
24666;BME280;29726;53.532;-1.478;2022-09-09T16:36:08;99537.53;;;23.90;nan
24666;BME280;29726;53.532;-1.478;2022-09-09T16:41:00;99543.06;;;23.88;nan
24666;BME280;29726;53.532;-1.478;2022-09-09T16:43:26;99541.78;;;23.82;nan
24666;BME280;29726;53.532;-1.478;2022-09-09T16:45:51;99540.25;;;23.81;nan
24666;BME280;29726;53.532;-1.478;2022-09-09T16:48:17;99556.97;;;23.84;nan
24666;BME280;29726;53.532;-1.478;2022-09-09T16:58:02;99568.75;;;23.81;nan
24666;BME280;29726;53.532;-1.478;2022-09-09T17:00:28;99576.75;;;23.83;nan
24666;BME280;29726;53.532;-1.478;2022-09-09T17:02:53;99579.41;;;23.80;nan
24666;BME280;29726;53.532;-1.478;2022-09-09T17:05:18;99576.38;;;23.78;nan
24666;BME280;29726;53.532;-1.478;2022-09-09T17:10:09;99574.84;;;23.77;nan
24666;BME280;29726;53.532;-1.478;2022-09-09T17:12:34;99571.09;;;23.75;nan
24666;BME280;29726;53.532;-1.478;2022-09-09T17:15:01;99587.03;;;23.78;nan
24666;BME280;29726;53.532;-1.478;2022-09-09T17:17:28;99589.88;;;23.78;nan
24666;BME280;29726;53.532;-1.478;2022-09-09T17:19:53;99584.75;;;23.76;nan
24666;BME280;29726;53.532;-1.478;2022-09-09T17:22:19;99589.69;;;23.76;nan
24666;BME280;29726;53.532;-1.478;2022-09-09T17:24:45;99603.34;;;23.77;nan
24666;BME280;29726;53.532;-1.478;2022-09-09T17:29:38;99612.16;;;23.72;nan
24666;BME280;29726;53.532;-1.478;2022-09-09T17:32:04;99621.28;;;23.71;nan
24666;BME280;29726;53.532;-1.478;2022-09-09T17:34:30;99639.22;;;23.56;nan
24666;BME280;29726;53.532;-1.478;2022-09-09T17:39:21;99634.00;;;23.38;nan